Time;durP1;ratioP1;P1;durP2;ratioP2;P2;SDS_P1;SDS_P2;PMS_P1;PMS_P2;Temp;Humidity;BMP_temperature;BMP_pressure;BME280_temperature;BME280_humidity;BME280_pressure;Samples;Min_cycle;Max_cycle;Signal;HPM_P1;HPM_P2
2022/04/28 00:01:45;;;;;;;8.63;4.20;;;;;;;;;;5094108;28;20823;-72
2022/04/28 00:04:13;;;;;;;9.63;3.80;;;;;;;;;;5093955;28;20556;-70
2022/04/28 00:06:41;;;;;;;12.17;5.13;;;;;;;;;;5094693;28;20448;-71
2022/04/28 00:09:13;;;;;;;71.27;56.10;;;;;;;;;;5094222;28;20455;-70
2022/04/28 00:11:43;;;;;;;18.90;17.63;;;;;;;;;;5094812;28;20447;-71
2022/04/28 00:14:11;;;;;;;12.33;7.80;;;;;;;;;;5093511;28;20451;-70
2022/04/28 00:16:39;;;;;;;141.67;72.10;;;;;;;;;;5095179;28;20524;-69
2022/04/28 00:19:06;;;;;;;13.50;9.93;;;;;;;;;;5094275;28;20723;-70
2022/04/28 00:21:34;;;;;;;95.47;61.17;;;;;;;;;;5094755;28;20470;-70
2022/04/28 00:24:04;;;;;;;195.30;79.77;;;;;;;;;;5094122;28;20560;-71
2022/04/28 00:26:32;;;;;;;78.37;58.37;;;;;;;;;;5094082;28;20477;-72
2022/04/28 00:29:01;;;;;;;60.13;54.13;;;;;;;;;;5094261;28;20458;-71
2022/04/28 00:31:28;;;;;;;120.37;69.67;;;;;;;;;;5094043;28;20452;-71
2022/04/28 00:33:56;;;;;;;168.57;73.00;;;;;;;;;;5094642;28;20450;-71
2022/04/28 00:36:24;;;;;;;161.90;78.43;;;;;;;;;;5093989;28;20447;-70
2022/04/28 00:38:52;;;;;;;147.77;68.63;;;;;;;;;;5093906;28;20454;-71
2022/04/28 00:41:20;;;;;;;80.50;61.60;;;;;;;;;;5094168;28;21059;-71
2022/04/28 00:43:55;;;;;;;47.83;42.73;;;;;;;;;;5094608;28;20518;-71
2022/04/28 00:46:24;;;;;;;183.00;77.63;;;;;;;;;;5094548;28;20455;-71
2022/04/28 00:51:37;;;;;;;217.20;81.67;;;;;;;;;;5098097;28;20430;-72
2022/04/28 00:54:06;;;;;;;142.27;71.27;;;;;;;;;;5097916;28;20521;-70
2022/04/28 00:56:37;;;;;;;204.50;78.87;;;;;;;;;;5098487;28;20451;-71
2022/04/28 00:59:04;;;;;;;171.30;75.87;;;;;;;;;;5097928;28;20826;-71
2022/04/28 01:01:34;;;;;;;152.40;77.47;;;;;;;;;;5097777;28;20452;-71
2022/04/28 01:04:05;;;;;;;219.47;78.77;;;;;;;;;;5097134;28;20490;-71
2022/04/28 01:06:33;;;;;;;158.33;71.10;;;;;;;;;;5097683;28;20740;-70
2022/04/28 01:09:01;;;;;;;103.87;59.07;;;;;;;;;;5097921;28;20913;-71
2022/04/28 01:11:31;;;;;;;159.77;72.00;;;;;;;;;;5097549;28;20456;-70
2022/04/28 01:14:02;;;;;;;175.07;69.57;;;;;;;;;;5097653;28;20566;-71
2022/04/28 01:16:30;;;;;;;196.50;76.10;;;;;;;;;;5097611;28;20459;-71
2022/04/28 01:19:05;;;;;;;250.97;82.57;;;;;;;;;;5097779;28;20875;-71
2022/04/28 01:21:34;;;;;;;207.73;80.90;;;;;;;;;;5098191;28;20734;-72
2022/04/28 01:24:03;;;;;;;170.03;78.00;;;;;;;;;;5097544;28;20489;-70
2022/04/28 01:26:31;;;;;;;168.27;72.10;;;;;;;;;;5097785;28;20482;-71
2022/04/28 01:28:59;;;;;;;180.17;73.70;;;;;;;;;;5097681;28;20456;-71
2022/04/28 01:31:27;;;;;;;186.77;71.73;;;;;;;;;;5097219;28;20832;-70
2022/04/28 01:33:55;;;;;;;202.83;79.10;;;;;;;;;;5097704;28;20448;-71
2022/04/28 01:36:23;;;;;;;279.03;85.50;;;;;;;;;;5097252;28;20526;-71
2022/04/28 01:38:52;;;;;;;295.30;83.70;;;;;;;;;;5097793;28;20906;-73
2022/04/28 01:41:19;;;;;;;293.10;84.40;;;;;;;;;;5096767;28;20451;-70
2022/04/28 01:43:47;;;;;;;310.70;84.03;;;;;;;;;;5097973;28;20496;-70
2022/04/28 01:46:15;;;;;;;248.37;80.77;;;;;;;;;;5097337;28;20451;-71
2022/04/28 01:48:43;;;;;;;273.33;81.37;;;;;;;;;;5096436;28;21023;-72
2022/04/28 01:56:56;;;;;;;292.60;82.20;;;;;;;;;;5055167;28;20417;-72
2022/04/28 01:59:27;;;;;;;285.20;80.43;;;;;;;;;;5054474;28;20442;-72
2022/04/28 02:01:54;;;;;;;296.07;85.40;;;;;;;;;;5074471;28;20498;-72
2022/04/28 02:04:25;;;;;;;255.53;79.60;;;;;;;;;;5096186;28;20768;-72
2022/04/28 02:06:52;;;;;;;273.67;80.60;;;;;;;;;;5096591;28;20452;-72
2022/04/28 02:09:21;;;;;;;246.57;74.40;;;;;;;;;;5095927;28;20460;-72
2022/04/28 02:11:49;;;;;;;273.97;81.40;;;;;;;;;;5096444;28;20454;-72
2022/04/28 02:14:20;;;;;;;278.70;77.60;;;;;;;;;;5096392;28;20524;-72
2022/04/28 02:16:48;;;;;;;269.20;78.87;;;;;;;;;;5096938;28;20452;-72
2022/04/28 02:19:15;;;;;;;222.03;75.40;;;;;;;;;;5096405;28;20466;-71
2022/04/28 02:21:43;;;;;;;152.33;66.07;;;;;;;;;;5094771;28;20455;-71
2022/04/28 02:24:11;;;;;;;142.47;62.30;;;;;;;;;;5096385;28;20574;-72
2022/04/28 02:26:41;;;;;;;107.23;54.93;;;;;;;;;;5096244;28;20474;-72
2022/04/28 02:29:11;;;;;;;229.77;77.67;;;;;;;;;;5096144;28;20554;-71
2022/04/28 02:31:38;;;;;;;40.37;36.27;;;;;;;;;;5094940;28;20554;-71
2022/04/28 02:34:06;;;;;;;111.87;57.67;;;;;;;;;;5096088;28;20851;-71
2022/04/28 02:36:34;;;;;;;100.77;56.23;;;;;;;;;;5095713;28;20905;-72
2022/04/28 02:39:01;;;;;;;44.20;39.60;;;;;;;;;;5095314;28;20465;-72
2022/04/28 02:41:29;;;;;;;106.40;57.57;;;;;;;;;;5096145;28;20512;-71
2022/04/28 02:44:00;;;;;;;150.80;64.37;;;;;;;;;;5095414;28;20800;-72
2022/04/28 02:46:31;;;;;;;36.23;32.73;;;;;;;;;;5095534;28;20451;-72
2022/04/28 02:48:58;;;;;;;58.70;46.87;;;;;;;;;;5095055;28;20464;-72
2022/04/28 02:51:26;;;;;;;74.60;49.63;;;;;;;;;;5096054;28;20890;-72
2022/04/28 02:53:54;;;;;;;72.93;48.77;;;;;;;;;;5095016;28;20556;-72
2022/04/28 02:56:21;;;;;;;74.80;52.63;;;;;;;;;;5095623;28;20886;-71
2022/04/28 02:58:50;;;;;;;91.00;52.73;;;;;;;;;;5095653;28;20462;-71
2022/04/28 03:01:19;;;;;;;58.37;43.67;;;;;;;;;;5095571;28;20446;-71
2022/04/28 03:03:47;;;;;;;155.57;66.27;;;;;;;;;;5094194;28;20456;-72
2022/04/28 03:11:44;;;;;;;134.90;60.43;;;;;;;;;;5094959;28;20889;-72
2022/04/28 03:14:12;;;;;;;86.57;54.77;;;;;;;;;;5094126;28;20941;-72
2022/04/28 03:16:42;;;;;;;147.67;62.87;;;;;;;;;;5095885;28;20447;-72
2022/04/28 03:19:10;;;;;;;126.80;66.83;;;;;;;;;;5094522;28;20521;-71
2022/04/28 03:21:42;;;;;;;186.57;69.87;;;;;;;;;;5095385;28;20720;-72
2022/04/28 03:24:10;;;;;;;99.37;54.97;;;;;;;;;;5094834;28;20456;-72
2022/04/28 03:26:39;;;;;;;96.17;53.20;;;;;;;;;;5095147;28;20487;-72
2022/04/28 03:29:06;;;;;;;143.23;59.40;;;;;;;;;;5095442;28;20487;-72
2022/04/28 03:31:38;;;;;;;194.77;69.20;;;;;;;;;;5094901;28;20810;-72
2022/04/28 03:34:07;;;;;;;194.00;72.50;;;;;;;;;;5094911;28;20451;-72
2022/04/28 03:36:51;;;;;;;72.13;48.37;;;;;;;;;;5094431;28;20539;-72
2022/04/28 03:39:19;;;;;;;104.57;55.87;;;;;;;;;;5095162;28;20460;-72
2022/04/28 03:41:46;;;;;;;117.03;57.47;;;;;;;;;;5095084;28;20459;-72
2022/04/28 03:44:14;;;;;;;79.27;47.77;;;;;;;;;;5095143;28;20455;-72
2022/04/28 03:46:42;;;;;;;177.23;69.47;;;;;;;;;;5094901;28;20455;-72
2022/04/28 03:49:15;;;;;;;194.23;70.53;;;;;;;;;;5096155;28;20454;-72
2022/04/28 03:51:50;;;;;;;249.07;75.67;;;;;;;;;;5113250;28;20837;-72
2022/04/28 03:54:17;;;;;;;117.97;54.57;;;;;;;;;;5074590;28;20452;-71
2022/04/28 03:56:47;;;;;;;150.50;61.23;;;;;;;;;;5073969;28;20872;-71
2022/04/28 03:59:17;;;;;;;66.60;49.77;;;;;;;;;;5075262;28;20444;-71
2022/04/28 04:01:45;;;;;;;125.03;58.17;;;;;;;;;;5094924;28;20463;-71
2022/04/28 04:04:14;;;;;;;159.80;65.20;;;;;;;;;;5094125;28;20444;-72
2022/04/28 04:06:42;;;;;;;148.27;67.97;;;;;;;;;;5094936;28;20532;-72
2022/04/28 04:09:10;;;;;;;176.07;66.53;;;;;;;;;;5094438;28;20796;-72
2022/04/28 04:11:38;;;;;;;170.10;65.47;;;;;;;;;;5094078;28;20590;-72
2022/04/28 04:14:08;;;;;;;203.60;69.17;;;;;;;;;;5094504;28;20439;-72
2022/04/28 04:16:35;;;;;;;113.97;60.10;;;;;;;;;;5094652;28;20502;-72
2022/04/28 04:19:03;;;;;;;121.23;57.37;;;;;;;;;;5094241;28;20508;-72
2022/04/28 04:21:32;;;;;;;45.20;38.77;;;;;;;;;;5094939;28;20452;-72
2022/04/28 04:24:00;;;;;;;150.33;62.80;;;;;;;;;;5098671;28;20454;-71
2022/04/28 04:26:28;;;;;;;226.57;77.50;;;;;;;;;;5099512;28;20555;-71
2022/04/28 04:28:58;;;;;;;201.23;71.93;;;;;;;;;;5098853;28;20458;-71
2022/04/28 04:34:11;;;;;;;140.83;61.77;;;;;;;;;;5099072;28;20770;-71
2022/04/28 04:36:40;;;;;;;221.50;74.00;;;;;;;;;;5098896;28;20470;-72
2022/04/28 04:39:08;;;;;;;225.53;75.63;;;;;;;;;;5098590;28;20519;-71
2022/04/28 04:41:36;;;;;;;170.17;69.17;;;;;;;;;;5097809;28;20432;-71
2022/04/28 04:44:13;;;;;;;214.43;70.37;;;;;;;;;;5097799;28;20484;-71
2022/04/28 04:46:43;;;;;;;210.43;70.03;;;;;;;;;;5098471;28;20489;-71
2022/04/28 04:49:12;;;;;;;203.73;71.30;;;;;;;;;;5098691;28;20950;-71
2022/04/28 04:51:41;;;;;;;141.13;62.20;;;;;;;;;;5098644;28;20443;-71
2022/04/28 04:54:09;;;;;;;133.93;62.37;;;;;;;;;;5098611;28;20524;-71
2022/04/28 04:56:38;;;;;;;132.73;62.67;;;;;;;;;;5098319;28;20874;-71
2022/04/28 04:59:07;;;;;;;91.20;52.60;;;;;;;;;;5098005;28;20481;-71
2022/04/28 05:01:35;;;;;;;148.60;65.00;;;;;;;;;;5097061;28;20775;-71
2022/04/28 05:04:02;;;;;;;139.87;67.00;;;;;;;;;;5097806;28;20954;-71
2022/04/28 05:06:31;;;;;;;160.00;69.23;;;;;;;;;;5097269;28;20483;-71
2022/04/28 05:09:00;;;;;;;213.40;76.67;;;;;;;;;;5094743;28;20456;-71
2022/04/28 05:11:28;;;;;;;214.43;82.37;;;;;;;;;;5097428;28;21104;-72
2022/04/28 05:13:57;;;;;;;184.80;78.43;;;;;;;;;;5096448;28;20841;-72
2022/04/28 05:16:24;;;;;;;232.00;86.40;;;;;;;;;;5097522;28;20820;-72
2022/04/28 05:18:54;;;;;;;260.70;93.57;;;;;;;;;;5097857;28;20497;-72
2022/04/28 05:21:22;;;;;;;256.73;93.60;;;;;;;;;;5096750;28;20467;-72
2022/04/28 05:23:50;;;;;;;290.27;105.20;;;;;;;;;;5096627;28;20447;-73
2022/04/28 05:26:22;;;;;;;230.33;98.40;;;;;;;;;;5096404;28;20487;-72
2022/04/28 05:28:50;;;;;;;272.30;104.27;;;;;;;;;;5094910;28;20452;-71
2022/04/28 05:31:17;;;;;;;151.77;87.00;;;;;;;;;;5095346;28;20754;-71
2022/04/28 05:33:45;;;;;;;294.93;104.00;;;;;;;;;;5093796;28;20509;-71
2022/04/28 05:36:14;;;;;;;303.87;117.03;;;;;;;;;;5095403;28;20447;-71
2022/04/28 05:38:48;;;;;;;267.57;114.23;;;;;;;;;;5094876;28;20448;-72
2022/04/28 05:41:16;;;;;;;259.60;115.70;;;;;;;;;;5093110;28;20455;-72
2022/04/28 05:46:29;;;;;;;166.63;101.00;;;;;;;;;;5094599;28;20490;-71
2022/04/28 05:49:00;;;;;;;178.57;107.70;;;;;;;;;;5095511;28;20570;-70
2022/04/28 05:51:28;;;;;;;220.13;109.30;;;;;;;;;;5095325;28;20533;-71
2022/04/28 05:53:57;;;;;;;267.77;108.87;;;;;;;;;;5093874;28;20459;-71
2022/04/28 05:56:25;;;;;;;261.63;110.90;;;;;;;;;;5095072;28;20455;-71
2022/04/28 05:58:55;;;;;;;296.83;107.47;;;;;;;;;;5094714;28;20572;-71
2022/04/28 06:01:31;;;;;;;276.97;103.67;;;;;;;;;;5094413;28;20558;-72
2022/04/28 06:04:00;;;;;;;305.37;106.97;;;;;;;;;;5094523;28;20446;-71
2022/04/28 06:06:27;;;;;;;298.10;107.27;;;;;;;;;;5094621;28;20548;-70
2022/04/28 06:09:02;;;;;;;288.97;107.30;;;;;;;;;;5094365;28;20460;-70
2022/04/28 06:11:30;;;;;;;278.57;95.17;;;;;;;;;;5095028;28;20777;-70
2022/04/28 06:13:59;;;;;;;299.13;102.60;;;;;;;;;;5095221;28;20866;-69
2022/04/28 06:16:27;;;;;;;276.17;93.20;;;;;;;;;;5093934;28;20537;-69
2022/04/28 06:18:55;;;;;;;258.53;95.70;;;;;;;;;;5099241;28;20485;-71
2022/04/28 06:21:24;;;;;;;272.90;99.73;;;;;;;;;;5102948;28;20464;-72
2022/04/28 06:23:53;;;;;;;274.00;90.43;;;;;;;;;;5108326;28;20488;-70
2022/04/28 06:26:21;;;;;;;198.77;86.97;;;;;;;;;;5094579;28;20587;-71
2022/04/28 06:28:49;;;;;;;216.23;91.97;;;;;;;;;;5095420;28;20452;-71
2022/04/28 06:31:18;;;;;;;282.70;102.30;;;;;;;;;;5094642;28;20469;-70
2022/04/28 06:33:48;;;;;;;160.23;83.90;;;;;;;;;;5094320;28;20552;-71
2022/04/28 06:36:15;;;;;;;196.33;89.57;;;;;;;;;;5094861;28;20456;-71
2022/04/28 06:38:43;;;;;;;297.60;99.43;;;;;;;;;;5095626;28;20730;-70
2022/04/28 06:41:11;;;;;;;169.80;88.13;;;;;;;;;;5093884;28;20509;-70
2022/04/28 06:43:38;;;;;;;246.93;97.80;;;;;;;;;;5094907;28;20598;-70
2022/04/28 06:46:17;;;;;;;230.50;89.07;;;;;;;;;;5092496;28;20475;-71
2022/04/28 06:48:47;;;;;;;253.27;92.97;;;;;;;;;;5073422;28;20527;-70
2022/04/28 06:51:15;;;;;;;278.87;97.47;;;;;;;;;;5078219;28;20463;-71
2022/04/28 06:53:48;;;;;;;292.43;104.77;;;;;;;;;;5102188;28;20906;-71
2022/04/28 06:56:16;;;;;;;301.10;102.57;;;;;;;;;;5099045;28;20817;-71
2022/04/28 06:58:53;;;;;;;289.47;103.40;;;;;;;;;;5102661;28;20432;-72
2022/04/28 07:01:25;;;;;;;255.33;100.03;;;;;;;;;;5102893;28;20450;-71
2022/04/28 07:04:01;;;;;;;251.67;102.73;;;;;;;;;;5102626;28;20436;-68
2022/04/28 07:06:29;;;;;;;255.73;104.43;;;;;;;;;;5098166;28;20493;-72
2022/04/28 07:08:56;;;;;;;270.57;100.90;;;;;;;;;;5102502;28;20467;-71
2022/04/28 07:11:38;;;;;;;;;;;;;;;;;;;;;
2022/04/28 07:14:06;;;;;;;332.27;107.87;;;;;;;;;;5096910;28;20903;-70
2022/04/28 07:16:33;;;;;;;287.30;98.67;;;;;;;;;;5092525;28;20475;-70
2022/04/28 07:19:04;;;;;;;305.33;104.87;;;;;;;;;;5112107;28;20462;-70
2022/04/28 07:21:43;;;;;;;289.53;103.37;;;;;;;;;;5111948;28;20508;-70
2022/04/28 07:24:11;;;;;;;226.90;99.77;;;;;;;;;;5094992;28;20518;-71
2022/04/28 07:26:54;;;;;;;264.93;101.67;;;;;;;;;;5092354;28;20859;-71
2022/04/28 07:29:25;;;;;;;281.30;108.37;;;;;;;;;;5091812;28;20928;-71
2022/04/28 07:31:53;;;;;;;249.07;101.60;;;;;;;;;;5090167;28;20524;-70
2022/04/28 07:34:30;;;;;;;252.97;103.87;;;;;;;;;;5093287;28;20728;-71
2022/04/28 07:36:58;;;;;;;274.30;106.40;;;;;;;;;;5092416;28;20478;-71
2022/04/28 07:42:33;;;;;;;344.13;111.10;;;;;;;;;;5081534;28;20449;-71
2022/04/28 07:45:04;;;;;;;338.97;109.53;;;;;;;;;;5094484;28;20451;-71
2022/04/28 07:47:41;;;;;;;346.83;119.57;;;;;;;;;;5092302;28;20475;-71
2022/04/28 07:50:39;;;;;;;334.97;111.43;;;;;;;;;;5104462;28;20527;-70
2022/04/28 07:53:06;;;;;;;321.13;105.27;;;;;;;;;;5094768;28;20752;-70
2022/04/28 07:55:44;;;;;;;338.20;116.50;;;;;;;;;;5091464;28;20460;-70
2022/04/28 07:58:20;;;;;;;352.37;119.00;;;;;;;;;;5095039;28;20459;-70
2022/04/28 08:00:52;;;;;;;333.53;111.63;;;;;;;;;;5095317;28;20562;-70
2022/04/28 08:03:44;;;;;;;;;;;;;;;;;;;;;
2022/04/28 08:06:23;;;;;;;323.03;108.57;;;;;;;;;;5103180;28;20746;-70
2022/04/28 08:08:53;;;;;;;342.00;118.03;;;;;;;;;;5095343;28;20466;-70
2022/04/28 08:11:23;;;;;;;284.93;107.43;;;;;;;;;;5098703;28;20801;-70
2022/04/28 08:13:53;;;;;;;164.53;109.50;;;;;;;;;;5096896;28;20905;-75
2022/04/28 08:16:27;;;;;;;308.83;119.30;;;;;;;;;;5097376;28;20447;-70
2022/04/28 08:19:02;;;;;;;325.77;117.77;;;;;;;;;;5096745;28;20528;-70
2022/04/28 08:21:54;;;;;;;317.90;118.20;;;;;;;;;;5095359;28;20528;-70
2022/04/28 08:24:45;;;;;;;320.97;121.30;;;;;;;;;;5089454;28;20451;-71
2022/04/28 08:27:24;;;;;;;230.03;112.53;;;;;;;;;;5094830;28;20518;-72
2022/04/28 08:29:59;;;;;;;227.97;109.97;;;;;;;;;;5089434;28;20525;-71
2022/04/28 08:32:32;;;;;;;275.40;120.73;;;;;;;;;;5094617;28;20486;-71
2022/04/28 08:35:02;;;;;;;110.57;98.77;;;;;;;;;;5096145;28;20538;-71
2022/04/28 08:37:30;;;;;;;182.47;115.87;;;;;;;;;;5096527;28;20481;-72
2022/04/28 08:40:00;;;;;;;160.50;117.73;;;;;;;;;;5096593;28;20454;-71
2022/04/28 08:42:30;;;;;;;182.77;116.07;;;;;;;;;;5093114;28;20556;-71
2022/04/28 08:45:00;;;;;;;158.67;108.97;;;;;;;;;;5097283;28;20480;-71
2022/04/28 08:47:31;;;;;;;113.67;95.00;;;;;;;;;;5097263;28;20736;-71
2022/04/28 08:50:00;;;;;;;262.10;128.97;;;;;;;;;;5097299;28;20505;-71
2022/04/28 08:52:30;;;;;;;116.17;99.90;;;;;;;;;;5095547;28;20500;-69
2022/04/28 08:55:25;;;;;;;222.73;130.30;;;;;;;;;;5081822;28;20537;-71
2022/04/28 08:58:19;;;;;;;273.40;194.03;;;;;;;;;;5074899;28;20552;-70
2022/04/28 09:01:33;;;;;;;283.87;172.10;;;;;;;;;;5096311;28;20463;-71
2022/04/28 09:07:36;;;;;;;328.53;144.33;;;;;;;;;;4930687;28;20730;-70
2022/04/28 09:22:01;;;;;;;320.20;150.50;;;;;;;;;;5041324;28;20545;-70
2022/04/28 09:24:47;;;;;;;327.83;144.63;;;;;;;;;;5102331;28;20837;-70
2022/04/28 09:27:29;;;;;;;292.60;145.87;;;;;;;;;;5101830;28;20866;-70
2022/04/28 09:30:10;;;;;;;40.87;38.27;;;;;;;;;;5102358;28;20532;-69
2022/04/28 09:33:02;;;;;;;46.37;43.23;;;;;;;;;;5092841;28;21020;-70
2022/04/28 09:35:51;;;;;;;23.17;21.47;;;;;;;;;;5096172;28;20524;-69
2022/04/28 09:38:37;;;;;;;132.23;118.47;;;;;;;;;;5096359;28;20444;-70
2022/04/28 09:44:12;;;;;;;297.80;132.47;;;;;;;;;;5069505;28;20435;-69
2022/04/28 09:52:32;;;;;;;337.30;150.57;;;;;;;;;;5087883;28;20692;-71
2022/04/28 09:55:17;;;;;;;256.93;151.93;;;;;;;;;;5094003;28;20765;-71
2022/04/28 09:57:56;;;;;;;306.20;141.40;;;;;;;;;;5098142;28;20518;-70
2022/04/28 10:09:32;;;;;;;188.73;133.93;;;;;;;;;;5072437;28;20431;-71
2022/04/28 10:12:27;;;;;;;292.17;142.80;;;;;;;;;;5088447;28;20463;-71
2022/04/28 10:17:57;;;;;;;63.23;59.70;;;;;;;;;;5070361;28;20552;-70
2022/04/28 10:20:50;;;;;;;247.37;157.43;;;;;;;;;;5068698;28;20444;-70
2022/04/28 10:32:41;;;;;;;254.47;143.37;;;;;;;;;;5071355;28;20587;-71
2022/04/28 10:35:39;;;;;;;234.37;156.53;;;;;;;;;;5053501;28;20465;-72
2022/04/28 10:38:21;;;;;;;254.80;160.70;;;;;;;;;;5072488;28;20441;-71
2022/04/28 10:41:05;;;;;;;347.67;168.63;;;;;;;;;;5071987;28;20474;-70
2022/04/28 10:43:46;;;;;;;293.53;165.33;;;;;;;;;;5070035;28;20464;-71
2022/04/28 10:49:32;;;;;;;335.23;162.90;;;;;;;;;;5068935;28;20495;-72
2022/04/28 10:52:30;;;;;;;344.87;157.57;;;;;;;;;;5069366;28;21192;-71
2022/04/28 10:55:19;;;;;;;354.10;182.17;;;;;;;;;;5073292;28;20460;-72
2022/04/28 10:57:56;;;;;;;363.43;192.40;;;;;;;;;;5056567;28;20479;-72
2022/04/28 11:00:50;;;;;;;337.83;167.37;;;;;;;;;;5074165;28;20531;-71
2022/04/28 11:03:47;;;;;;;347.77;166.73;;;;;;;;;;5086890;28;20479;-70
2022/04/28 11:06:21;;;;;;;369.63;172.93;;;;;;;;;;5094200;28;20720;-70
2022/04/28 11:12:17;;;;;;;340.47;174.43;;;;;;;;;;5023778;28;20451;-71
2022/04/28 11:14:50;;;;;;;362.40;176.13;;;;;;;;;;5086552;28;20915;-69
2022/04/28 11:17:43;;;;;;;365.50;181.63;;;;;;;;;;5074172;28;20456;-70
2022/04/28 11:23:23;;;;;;;342.30;157.03;;;;;;;;;;5067490;28;20776;-71
2022/04/28 11:25:57;;;;;;;272.97;177.30;;;;;;;;;;5090547;28;20503;-72
2022/04/28 11:28:44;;;;;;;354.93;179.10;;;;;;;;;;5078808;28;20485;-72
2022/04/28 11:31:20;;;;;;;379.27;180.97;;;;;;;;;;5067475;28;20555;-70
2022/04/28 11:33:53;;;;;;;296.37;209.17;;;;;;;;;;5068414;28;20449;-71
2022/04/28 11:36:28;;;;;;;303.33;207.27;;;;;;;;;;5071417;28;20521;-72
2022/04/28 11:39:17;;;;;;;377.50;176.20;;;;;;;;;;5071187;28;20471;-72
2022/04/28 11:41:55;;;;;;;390.20;207.10;;;;;;;;;;5061812;28;20457;-71
2022/04/28 11:44:36;;;;;;;386.47;221.90;;;;;;;;;;5079216;28;20461;-72
2022/04/28 11:47:13;;;;;;;303.23;226.00;;;;;;;;;;5071284;28;20480;-72
2022/04/28 11:53:03;;;;;;;336.60;228.20;;;;;;;;;;5066491;28;20444;-72
2022/04/28 11:56:00;;;;;;;338.20;227.97;;;;;;;;;;5071710;28;20436;-73
2022/04/28 11:58:39;;;;;;;336.63;229.43;;;;;;;;;;5071532;28;20476;-71
2022/04/28 12:04:00;;;;;;;388.30;220.97;;;;;;;;;;5070324;28;20449;-70
2022/04/28 12:06:42;;;;;;;315.30;204.20;;;;;;;;;;5070163;28;20900;-71
2022/04/28 12:14:52;;;;;;;363.87;199.23;;;;;;;;;;4988008;28;20448;-71
2022/04/28 12:23:30;;;;;;;226.43;202.13;;;;;;;;;;5037429;28;20559;-73
2022/04/28 12:26:14;;;;;;;321.50;228.97;;;;;;;;;;5071772;28;20789;-72
2022/04/28 12:29:09;;;;;;;278.93;218.73;;;;;;;;;;5079789;28;20556;-73
2022/04/28 12:32:01;;;;;;;201.13;186.57;;;;;;;;;;5036886;28;20460;-72
2022/04/28 12:34:44;;;;;;;300.90;214.77;;;;;;;;;;5066600;28;20459;-72
2022/04/28 12:37:16;;;;;;;270.63;211.80;;;;;;;;;;5072222;28;20514;-72
2022/04/28 12:42:57;;;;;;;;;;;;;;;;;;;;;
2022/04/28 12:45:56;;;;;;;328.60;232.20;;;;;;;;;;5040972;28;20448;-71
2022/04/28 12:48:51;;;;;;;382.00;220.70;;;;;;;;;;5075676;28;21042;-71
2022/04/28 12:51:32;;;;;;;355.57;214.67;;;;;;;;;;5075866;28;20599;-72
2022/04/28 12:54:13;;;;;;;390.73;246.23;;;;;;;;;;5075046;28;20817;-72
2022/04/28 12:56:44;;;;;;;391.00;252.67;;;;;;;;;;5075548;28;20466;-72
2022/04/28 12:59:27;;;;;;;295.50;224.27;;;;;;;;;;5076781;28;20543;-72
2022/04/28 13:01:59;;;;;;;354.93;222.70;;;;;;;;;;5073067;28;20859;-71
2022/04/28 13:04:47;;;;;;;339.77;242.47;;;;;;;;;;5072121;28;20693;-71
2022/04/28 13:07:20;;;;;;;345.53;242.47;;;;;;;;;;5075387;28;20488;-71
2022/04/28 13:10:04;;;;;;;308.47;222.30;;;;;;;;;;5072865;28;20457;-70
2022/04/28 13:12:38;;;;;;;355.27;244.73;;;;;;;;;;5072812;28;20950;-70
2022/04/28 13:15:13;;;;;;;348.53;238.57;;;;;;;;;;5073744;28;20505;-71
2022/04/28 13:17:47;;;;;;;277.40;248.50;;;;;;;;;;5073253;28;20460;-70
2022/04/28 13:20:15;;;;;;;262.33;199.13;;;;;;;;;;5074475;28;20921;-69
2022/04/28 13:22:45;;;;;;;240.47;199.93;;;;;;;;;;5073888;28;20449;-70
2022/04/28 13:25:13;;;;;;;263.13;240.57;;;;;;;;;;5072153;28;20444;-71
2022/04/28 13:27:43;;;;;;;238.30;212.50;;;;;;;;;;5073420;28;20488;-71
2022/04/28 13:30:11;;;;;;;217.37;200.13;;;;;;;;;;5073904;28;20453;-72
2022/04/28 13:32:39;;;;;;;240.93;206.97;;;;;;;;;;5073754;28;20478;-74
2022/04/28 13:35:09;;;;;;;278.47;245.20;;;;;;;;;;5077042;28;20492;-72
2022/04/28 13:37:44;;;;;;;286.40;219.40;;;;;;;;;;5072652;28;20480;-73
2022/04/28 13:40:16;;;;;;;233.77;213.17;;;;;;;;;;5073500;28;20445;-73
2022/04/28 13:42:44;;;;;;;244.77;223.17;;;;;;;;;;5073899;28;20459;-71
2022/04/28 13:45:12;;;;;;;257.30;230.63;;;;;;;;;;5073797;28;20459;-72
2022/04/28 13:48:21;;;;;;;27.50;25.20;;;;;;;;;;5075684;28;20484;-73
2022/04/28 13:51:28;;;;;;;256.67;233.20;;;;;;;;;;5052762;28;20444;-72
2022/04/28 13:53:56;;;;;;;251.23;228.50;;;;;;;;;;5072592;28;20792;-73
2022/04/28 13:59:28;;;;;;;255.57;233.40;;;;;;;;;;5033462;28;20471;-73
2022/04/28 14:05:20;;;;;;;243.10;222.67;;;;;;;;;;5012057;28;20428;-73
2022/04/28 14:29:30;;;;;;;237.07;220.47;;;;;;;;;;5012529;28;20577;-72
2022/04/28 14:38:29;;;;;;;276.00;252.07;;;;;;;;;;5068035;28;20451;-73
2022/04/28 14:40:57;;;;;;;270.37;249.70;;;;;;;;;;5073715;28;20478;-74
2022/04/28 14:43:50;;;;;;;277.40;253.53;;;;;;;;;;5073903;28;20460;-73
2022/04/28 14:46:53;;;;;;;242.93;223.53;;;;;;;;;;5072502;28;20444;-72
2022/04/28 14:58:06;;;;;;;249.67;225.40;;;;;;;;;;5065623;28;20457;-74
2022/04/28 15:00:42;;;;;;;237.90;217.97;;;;;;;;;;5071517;28;20455;-73
2022/04/28 15:03:24;;;;;;;258.57;233.20;;;;;;;;;;5091035;28;20535;-71
2022/04/28 15:05:55;;;;;;;281.93;252.83;;;;;;;;;;5072632;28;20551;-73
2022/04/28 15:08:28;;;;;;;231.87;211.33;;;;;;;;;;5070561;28;20483;-71
2022/04/28 15:11:03;;;;;;;259.23;233.70;;;;;;;;;;5071687;28;20680;-71
2022/04/28 15:13:45;;;;;;;243.50;220.67;;;;;;;;;;5085802;28;20743;-70
2022/04/28 15:16:16;;;;;;;126.73;119.70;;;;;;;;;;5091814;28;20876;-72
2022/04/28 15:18:47;;;;;;;10.50;7.67;;;;;;;;;;5092348;28;20438;-71
2022/04/28 15:21:16;;;;;;;188.63;177.60;;;;;;;;;;5074255;28;20958;-71
2022/04/28 15:23:43;;;;;;;256.77;231.33;;;;;;;;;;5071963;28;21025;-72
2022/04/28 15:26:13;;;;;;;236.27;212.93;;;;;;;;;;5071382;28;20533;-71
2022/04/28 15:28:41;;;;;;;264.37;244.07;;;;;;;;;;5060948;28;20485;-72
2022/04/28 15:31:09;;;;;;;247.67;228.23;;;;;;;;;;5070842;28;20471;-74
2022/04/28 15:33:45;;;;;;;237.30;221.83;;;;;;;;;;5068507;28;20955;-72
2022/04/28 15:36:16;;;;;;;271.73;245.53;;;;;;;;;;5068089;28;20461;-74
2022/04/28 15:38:46;;;;;;;100.47;95.10;;;;;;;;;;5069278;28;21075;-73
2022/04/28 15:41:16;;;;;;;133.17;124.87;;;;;;;;;;5070748;28;20460;-74
2022/04/28 15:43:49;;;;;;;298.70;242.43;;;;;;;;;;5071970;28;20955;-74
2022/04/28 15:46:20;;;;;;;107.17;101.80;;;;;;;;;;5067228;28;20467;-73
2022/04/28 15:48:49;;;;;;;311.70;216.67;;;;;;;;;;5074374;28;20483;-73
2022/04/28 15:51:21;;;;;;;299.37;222.67;;;;;;;;;;5079931;28;20598;-72
2022/04/28 15:53:49;;;;;;;69.67;66.10;;;;;;;;;;5071247;28;20529;-72
2022/04/28 15:56:22;;;;;;;19.80;18.00;;;;;;;;;;5071619;28;20453;-72
2022/04/28 15:58:52;;;;;;;15.83;12.77;;;;;;;;;;5060101;28;21142;-72
2022/04/28 16:05:01;;;;;;;161.33;150.83;;;;;;;;;;4949117;28;20472;-72
2022/04/28 16:08:10;;;;;;;244.93;220.63;;;;;;;;;;4975975;28;20550;-72
2022/04/28 16:10:40;;;;;;;269.27;221.37;;;;;;;;;;5066304;28;20456;-71
2022/04/28 16:13:21;;;;;;;131.43;123.03;;;;;;;;;;5072245;28;20780;-72
2022/04/28 16:19:23;;;;;;;202.73;184.13;;;;;;;;;;4997029;28;20461;-72
2022/04/28 16:21:53;;;;;;;211.97;189.57;;;;;;;;;;5077131;28;20452;-73
2022/04/28 16:24:25;;;;;;;148.50;138.80;;;;;;;;;;5075877;28;20440;-74
2022/04/28 16:30:33;;;;;;;176.23;163.97;;;;;;;;;;5068685;28;20463;-72
2022/04/28 16:33:01;;;;;;;163.07;149.53;;;;;;;;;;5077050;28;20506;-72
2022/04/28 16:38:52;;;;;;;167.40;154.37;;;;;;;;;;4994250;28;20456;-71
2022/04/28 16:44:11;;;;;;;133.23;124.93;;;;;;;;;;4985220;28;20451;-72
2022/04/28 16:46:49;;;;;;;182.40;170.27;;;;;;;;;;4994255;28;20455;-72
2022/04/28 16:49:17;;;;;;;226.00;207.53;;;;;;;;;;5025937;28;20585;-72
2022/04/28 16:51:45;;;;;;;232.33;215.53;;;;;;;;;;5073068;28;20452;-71
2022/04/28 16:54:14;;;;;;;250.77;234.67;;;;;;;;;;5073007;28;20757;-72
2022/04/28 16:56:41;;;;;;;253.87;235.40;;;;;;;;;;5073765;28;21069;-72
2022/04/28 16:59:12;;;;;;;280.97;254.90;;;;;;;;;;5074392;28;20456;-72
2022/04/28 17:01:44;;;;;;;282.83;262.03;;;;;;;;;;5077061;28;20543;-72
2022/04/28 17:07:22;;;;;;;293.87;265.47;;;;;;;;;;5070533;28;20567;-72
2022/04/28 17:09:56;;;;;;;255.70;233.17;;;;;;;;;;5075268;28;20488;-73
2022/04/28 17:12:37;;;;;;;248.93;224.63;;;;;;;;;;5074994;28;20444;-73
2022/04/28 17:15:12;;;;;;;248.63;230.33;;;;;;;;;;5074132;28;20869;-71
2022/04/28 17:17:46;;;;;;;224.60;203.27;;;;;;;;;;5055781;28;20444;-72